Farrell Flat Airport

Jump to: basic info | weather | frequencies | runways | comments

Related pages: nearby airports | nearby navaids | notams | map

Basic information (top)

Codes: YFFT
Location: lon -33.833302, lat 138.766998
Status: small_airport

Weather (top)

Current conditions for Adelaide International Airport 68nm (125km) S (rec'd 2014/04/20 00:00Z):

YPAD 200000Z 01004KT 9999 FEW040 18/08 Q1019 NOSIG

Airport forecast for Adelaide International Airport 68nm (125km) S (rec'd 2014/04/19 00:33Z):

TAF YPAD 192320Z 2000/2106 33006KT 9999 FEW040 
     FM200400 26008KT CAVOK 
     FM200800 08006KT CAVOK 
     FM201200 03010KT CAVOK 
     FM201800 01014KT CAVOK 
     FM210000 35018G30KT CAVOK

Frequencies (top)

Verify before use: may be inaccurate or out of date.

CTAF: 122.4 MHz (CTAF)
MISC: 114.2 MHz (MISC)
MISC: 119.8 MHz (MISC)
MISC: 121.3 MHz (MISC)

Runways (top)

03/21: 1,443 ft (440 m) — grass — not lighted

14/32: 2,486 ft (758 m) — grass — not lighted

Latest comments (top)

No comments yet for Farrell Flat Airport

More... (top)

See also NOTAMs and nearby airports and navaids, or visit the Farrell Flat Airport page at the main OurAirports website..